Airfield :
LOGIN :

Register | Disclaimer

   EN    FR    IT 

 










Legend :    VFR   Marginal VFR   IFR   Intensive IFR   Very Intensive IFR
Visi :
Ceiling :
>= 8 km
>= 3000ft
5 to 8 km
1000 to 3000 ft
1500m to 5 km
500 to 1000 ft
800 to 1500m
200 to 500 ft
< 800m
< 200 ft
Symbols :   Thunderstorms  Fog  Heavy snow  Heavy precipitations  Wind > 20 kt
SIGMETs :     Misc.  Thunderstorms  Icing  Turbulence  Mountain Waves  Volcanic Ashes






- Airport Elevation : 54 ft
- IATA code : JSI


LGSK - Alexandros Papadiamandis

CURRENT METAR :
  • 191650Z 19002KT CAVOK 29/22 Q1008

EXPIRED METARs :
  • 191550Z 17003KT CAVOK 30/22 Q1008
  • 191450Z 02005KT CAVOK 34/17 Q1008

TAF TAF LGSK
Valid from the 19 at 15:00 until the 20 at 00:00 UTC


191400Z 1915/1924 VRB05KT 9999 FEW018



MET'MAP, your aeronautical weather chart ! - Copyright ORBIFLY December 2007 - Disclaimer

ORBIFLY MET'MAP TEAM :

Programming & Development : Alexandra Zaïnal
Original concept : Baudouin d'Aumeries
Technical & hardware support : Manuel Goepfert
Assistance : Marc-Olivier Méhu




SOURCES & CREDITS :

   NOAA